sensor_id;sensor_type;location;lat;lon;timestamp;temperature;humidity
5792;DHT22;2922;53.482;10.006;2024-03-06T00:01:52;4.90;99.90
5792;DHT22;2922;53.482;10.006;2024-03-06T00:04:18;4.90;99.90
5792;DHT22;2922;53.482;10.006;2024-03-06T00:06:43;4.90;99.90
5792;DHT22;2922;53.482;10.006;2024-03-06T00:09:09;4.90;99.90
5792;DHT22;2922;53.482;10.006;2024-03-06T00:11:35;4.90;99.90
5792;DHT22;2922;53.482;10.006;2024-03-06T00:14:03;4.90;99.90
5792;DHT22;2922;53.482;10.006;2024-03-06T00:16:33;4.90;99.90
5792;DHT22;2922;53.482;10.006;2024-03-06T00:18:59;4.80;99.90
5792;DHT22;2922;53.482;10.006;2024-03-06T00:21:25;4.80;99.90
5792;DHT22;2922;53.482;10.006;2024-03-06T00:23:50;4.80;99.90
5792;DHT22;2922;53.482;10.006;2024-03-06T00:26:16;4.80;99.90
5792;DHT22;2922;53.482;10.006;2024-03-06T00:28:41;4.80;99.90
5792;DHT22;2922;53.482;10.006;2024-03-06T00:31:07;4.70;99.90
5792;DHT22;2922;53.482;10.006;2024-03-06T00:33:32;4.70;99.90
5792;DHT22;2922;53.482;10.006;2024-03-06T00:35:58;4.70;99.90
5792;DHT22;2922;53.482;10.006;2024-03-06T00:38:24;4.60;99.90
5792;DHT22;2922;53.482;10.006;2024-03-06T00:40:49;4.60;99.90
5792;DHT22;2922;53.482;10.006;2024-03-06T00:43:15;4.60;99.90
5792;DHT22;2922;53.482;10.006;2024-03-06T00:45:40;4.60;99.90
5792;DHT22;2922;53.482;10.006;2024-03-06T00:48:07;4.60;99.90
5792;DHT22;2922;53.482;10.006;2024-03-06T00:50:32;4.60;99.90
5792;DHT22;2922;53.482;10.006;2024-03-06T00:52:58;4.60;99.90
5792;DHT22;2922;53.482;10.006;2024-03-06T00:55:23;4.50;99.90
5792;DHT22;2922;53.482;10.006;2024-03-06T00:57:49;4.60;99.90
5792;DHT22;2922;53.482;10.006;2024-03-06T01:00:15;4.60;99.90
5792;DHT22;2922;53.482;10.006;2024-03-06T01:02:41;4.60;99.90
5792;DHT22;2922;53.482;10.006;2024-03-06T01:05:07;4.60;99.90
5792;DHT22;2922;53.482;10.006;2024-03-06T01:07:35;4.60;99.90
5792;DHT22;2922;53.482;10.006;2024-03-06T01:10:01;4.60;99.90
5792;DHT22;2922;53.482;10.006;2024-03-06T01:12:26;4.60;99.90
5792;DHT22;2922;53.482;10.006;2024-03-06T01:14:52;4.60;99.90
5792;DHT22;2922;53.482;10.006;2024-03-06T01:17:18;4.70;99.90
5792;DHT22;2922;53.482;10.006;2024-03-06T01:19:44;4.70;99.90
5792;DHT22;2922;53.482;10.006;2024-03-06T01:22:10;4.70;99.90
5792;DHT22;2922;53.482;10.006;2024-03-06T01:24:36;4.70;99.90
5792;DHT22;2922;53.482;10.006;2024-03-06T01:27:01;4.80;99.90
5792;DHT22;2922;53.482;10.006;2024-03-06T01:29:28;4.80;99.90
5792;DHT22;2922;53.482;10.006;2024-03-06T01:31:54;4.80;99.90
5792;DHT22;2922;53.482;10.006;2024-03-06T01:34:20;4.80;99.90
5792;DHT22;2922;53.482;10.006;2024-03-06T01:36:46;4.80;99.90
5792;DHT22;2922;53.482;10.006;2024-03-06T01:39:11;4.80;99.90
5792;DHT22;2922;53.482;10.006;2024-03-06T01:41:37;4.80;99.90
5792;DHT22;2922;53.482;10.006;2024-03-06T01:44:03;4.80;99.90
5792;DHT22;2922;53.482;10.006;2024-03-06T01:46:29;4.80;99.90
5792;DHT22;2922;53.482;10.006;2024-03-06T01:48:55;4.80;99.90
5792;DHT22;2922;53.482;10.006;2024-03-06T01:51:21;4.80;99.90
5792;DHT22;2922;53.482;10.006;2024-03-06T01:53:47;4.80;99.90
5792;DHT22;2922;53.482;10.006;2024-03-06T01:56:13;4.80;99.90
5792;DHT22;2922;53.482;10.006;2024-03-06T01:58:42;4.80;99.90
5792;DHT22;2922;53.482;10.006;2024-03-06T02:01:11;4.80;99.90
5792;DHT22;2922;53.482;10.006;2024-03-06T02:03:37;4.80;99.90
5792;DHT22;2922;53.482;10.006;2024-03-06T02:06:03;4.80;99.90
5792;DHT22;2922;53.482;10.006;2024-03-06T02:08:30;4.80;99.90
5792;DHT22;2922;53.482;10.006;2024-03-06T02:10:56;4.80;99.90
5792;DHT22;2922;53.482;10.006;2024-03-06T02:13:21;4.80;99.90
5792;DHT22;2922;53.482;10.006;2024-03-06T02:15:48;4.80;99.90
5792;DHT22;2922;53.482;10.006;2024-03-06T02:18:14;4.80;99.90
5792;DHT22;2922;53.482;10.006;2024-03-06T02:20:40;4.80;99.90
5792;DHT22;2922;53.482;10.006;2024-03-06T02:23:06;4.80;99.90
5792;DHT22;2922;53.482;10.006;2024-03-06T02:25:32;4.80;99.90
5792;DHT22;2922;53.482;10.006;2024-03-06T02:27:57;4.70;99.90
5792;DHT22;2922;53.482;10.006;2024-03-06T02:30:24;4.70;99.90
5792;DHT22;2922;53.482;10.006;2024-03-06T02:32:50;4.60;99.90
5792;DHT22;2922;53.482;10.006;2024-03-06T02:35:15;4.60;99.90
5792;DHT22;2922;53.482;10.006;2024-03-06T02:37:42;4.50;99.90
5792;DHT22;2922;53.482;10.006;2024-03-06T02:40:09;4.50;99.90
5792;DHT22;2922;53.482;10.006;2024-03-06T02:42:35;4.50;99.90
5792;DHT22;2922;53.482;10.006;2024-03-06T02:45:04;4.40;99.90
5792;DHT22;2922;53.482;10.006;2024-03-06T02:47:30;4.40;99.90
5792;DHT22;2922;53.482;10.006;2024-03-06T02:49:56;4.30;99.90
5792;DHT22;2922;53.482;10.006;2024-03-06T02:52:21;4.30;99.90
5792;DHT22;2922;53.482;10.006;2024-03-06T02:54:48;4.20;99.90
5792;DHT22;2922;53.482;10.006;2024-03-06T02:57:13;4.20;99.90
5792;DHT22;2922;53.482;10.006;2024-03-06T02:59:42;4.10;99.90
5792;DHT22;2922;53.482;10.006;2024-03-06T03:02:08;4.10;99.90
5792;DHT22;2922;53.482;10.006;2024-03-06T03:04:34;4.00;99.90
5792;DHT22;2922;53.482;10.006;2024-03-06T03:06:59;4.00;99.90
5792;DHT22;2922;53.482;10.006;2024-03-06T03:09:25;4.00;99.90
5792;DHT22;2922;53.482;10.006;2024-03-06T03:11:51;4.00;99.90
5792;DHT22;2922;53.482;10.006;2024-03-06T03:14:16;3.90;99.90
5792;DHT22;2922;53.482;10.006;2024-03-06T03:16:42;3.90;99.90
5792;DHT22;2922;53.482;10.006;2024-03-06T03:19:08;3.90;99.90
5792;DHT22;2922;53.482;10.006;2024-03-06T03:21:34;3.80;99.90
5792;DHT22;2922;53.482;10.006;2024-03-06T03:23:59;3.80;99.90
5792;DHT22;2922;53.482;10.006;2024-03-06T03:26:25;3.80;99.90
5792;DHT22;2922;53.482;10.006;2024-03-06T03:28:51;3.80;99.90
5792;DHT22;2922;53.482;10.006;2024-03-06T03:31:16;3.80;99.90
5792;DHT22;2922;53.482;10.006;2024-03-06T03:33:42;3.70;99.90
5792;DHT22;2922;53.482;10.006;2024-03-06T03:36:08;3.70;99.90
5792;DHT22;2922;53.482;10.006;2024-03-06T03:38:35;3.60;99.90
5792;DHT22;2922;53.482;10.006;2024-03-06T03:41:10;3.60;99.90
5792;DHT22;2922;53.482;10.006;2024-03-06T03:43:38;3.60;99.90
5792;DHT22;2922;53.482;10.006;2024-03-06T03:46:04;3.50;99.90
5792;DHT22;2922;53.482;10.006;2024-03-06T03:48:31;3.50;99.90
5792;DHT22;2922;53.482;10.006;2024-03-06T03:50:56;3.40;99.90
5792;DHT22;2922;53.482;10.006;2024-03-06T03:53:22;3.40;99.90
5792;DHT22;2922;53.482;10.006;2024-03-06T03:55:47;3.40;99.90
5792;DHT22;2922;53.482;10.006;2024-03-06T03:58:13;3.30;99.90
5792;DHT22;2922;53.482;10.006;2024-03-06T04:00:38;3.30;99.90
5792;DHT22;2922;53.482;10.006;2024-03-06T04:03:04;3.20;99.90
5792;DHT22;2922;53.482;10.006;2024-03-06T04:05:30;3.20;99.90
5792;DHT22;2922;53.482;10.006;2024-03-06T04:07:57;3.10;99.90
5792;DHT22;2922;53.482;10.006;2024-03-06T04:10:22;3.10;99.90
5792;DHT22;2922;53.482;10.006;2024-03-06T04:12:48;3.00;99.90
5792;DHT22;2922;53.482;10.006;2024-03-06T04:15:14;3.00;99.90
5792;DHT22;2922;53.482;10.006;2024-03-06T04:17:40;3.00;99.90
5792;DHT22;2922;53.482;10.006;2024-03-06T04:20:06;3.00;99.90
5792;DHT22;2922;53.482;10.006;2024-03-06T04:22:32;2.90;99.90
5792;DHT22;2922;53.482;10.006;2024-03-06T04:24:58;2.90;99.90
5792;DHT22;2922;53.482;10.006;2024-03-06T04:27:24;2.90;99.90
5792;DHT22;2922;53.482;10.006;2024-03-06T04:29:51;2.80;99.90
5792;DHT22;2922;53.482;10.006;2024-03-06T04:32:18;2.80;99.90
5792;DHT22;2922;53.482;10.006;2024-03-06T04:34:43;2.80;99.90
5792;DHT22;2922;53.482;10.006;2024-03-06T04:37:09;2.70;99.90
5792;DHT22;2922;53.482;10.006;2024-03-06T04:39:34;2.70;99.90
5792;DHT22;2922;53.482;10.006;2024-03-06T04:42:00;2.60;99.90
5792;DHT22;2922;53.482;10.006;2024-03-06T04:44:26;2.60;99.90
5792;DHT22;2922;53.482;10.006;2024-03-06T04:46:51;2.60;99.90
5792;DHT22;2922;53.482;10.006;2024-03-06T04:49:17;2.60;99.90
5792;DHT22;2922;53.482;10.006;2024-03-06T04:51:42;2.60;99.90
5792;DHT22;2922;53.482;10.006;2024-03-06T04:54:08;2.60;99.90
5792;DHT22;2922;53.482;10.006;2024-03-06T04:56:34;2.50;99.90
5792;DHT22;2922;53.482;10.006;2024-03-06T04:58:59;2.50;99.90
5792;DHT22;2922;53.482;10.006;2024-03-06T05:01:29;2.50;99.90
5792;DHT22;2922;53.482;10.006;2024-03-06T05:03:54;2.50;99.90
5792;DHT22;2922;53.482;10.006;2024-03-06T05:06:21;2.40;99.90
5792;DHT22;2922;53.482;10.006;2024-03-06T05:08:47;2.40;99.90
5792;DHT22;2922;53.482;10.006;2024-03-06T05:11:13;2.40;99.90
5792;DHT22;2922;53.482;10.006;2024-03-06T05:13:38;2.30;99.90
5792;DHT22;2922;53.482;10.006;2024-03-06T05:16:05;2.30;99.90
5792;DHT22;2922;53.482;10.006;2024-03-06T05:18:30;2.30;99.90
5792;DHT22;2922;53.482;10.006;2024-03-06T05:20:56;2.30;99.90
5792;DHT22;2922;53.482;10.006;2024-03-06T05:23:22;2.20;99.90
5792;DHT22;2922;53.482;10.006;2024-03-06T05:25:48;2.20;99.90
5792;DHT22;2922;53.482;10.006;2024-03-06T05:28:14;2.20;99.90
5792;DHT22;2922;53.482;10.006;2024-03-06T05:30:39;2.20;99.90
5792;DHT22;2922;53.482;10.006;2024-03-06T05:33:05;2.20;99.90
5792;DHT22;2922;53.482;10.006;2024-03-06T05:35:31;2.10;99.90
5792;DHT22;2922;53.482;10.006;2024-03-06T05:37:56;2.10;99.90
5792;DHT22;2922;53.482;10.006;2024-03-06T05:40:22;2.10;99.90
5792;DHT22;2922;53.482;10.006;2024-03-06T05:42:47;2.00;99.90
5792;DHT22;2922;53.482;10.006;2024-03-06T05:45:13;2.00;99.90
5792;DHT22;2922;53.482;10.006;2024-03-06T05:47:39;1.90;99.90
5792;DHT22;2922;53.482;10.006;2024-03-06T05:50:08;1.90;99.90
5792;DHT22;2922;53.482;10.006;2024-03-06T05:52:36;1.90;99.90
5792;DHT22;2922;53.482;10.006;2024-03-06T05:55:02;1.90;99.90
5792;DHT22;2922;53.482;10.006;2024-03-06T05:57:27;1.80;99.90
5792;DHT22;2922;53.482;10.006;2024-03-06T05:59:53;1.70;99.90
5792;DHT22;2922;53.482;10.006;2024-03-06T06:02:19;1.70;99.90
5792;DHT22;2922;53.482;10.006;2024-03-06T06:04:47;1.70;99.90
5792;DHT22;2922;53.482;10.006;2024-03-06T06:07:13;1.70;99.90
5792;DHT22;2922;53.482;10.006;2024-03-06T06:09:38;1.70;99.90
5792;DHT22;2922;53.482;10.006;2024-03-06T06:12:04;1.60;99.90
5792;DHT22;2922;53.482;10.006;2024-03-06T06:14:30;1.60;99.90
5792;DHT22;2922;53.482;10.006;2024-03-06T06:16:58;1.60;99.90
5792;DHT22;2922;53.482;10.006;2024-03-06T06:19:24;1.60;99.90
5792;DHT22;2922;53.482;10.006;2024-03-06T06:21:53;1.60;99.90
5792;DHT22;2922;53.482;10.006;2024-03-06T06:24:19;1.60;99.90
5792;DHT22;2922;53.482;10.006;2024-03-06T06:26:44;1.60;99.90
5792;DHT22;2922;53.482;10.006;2024-03-06T06:29:10;1.60;99.90
5792;DHT22;2922;53.482;10.006;2024-03-06T06:31:36;1.60;99.90
5792;DHT22;2922;53.482;10.006;2024-03-06T06:34:01;1.60;99.90
5792;DHT22;2922;53.482;10.006;2024-03-06T06:36:27;1.60;99.90
5792;DHT22;2922;53.482;10.006;2024-03-06T06:38:53;1.60;99.90
5792;DHT22;2922;53.482;10.006;2024-03-06T06:41:18;1.70;99.90
5792;DHT22;2922;53.482;10.006;2024-03-06T06:43:45;1.70;99.90
5792;DHT22;2922;53.482;10.006;2024-03-06T06:46:11;1.70;99.90
5792;DHT22;2922;53.482;10.006;2024-03-06T06:48:36;1.70;99.90
5792;DHT22;2922;53.482;10.006;2024-03-06T06:51:02;1.70;99.90
5792;DHT22;2922;53.482;10.006;2024-03-06T06:53:31;1.80;99.90
5792;DHT22;2922;53.482;10.006;2024-03-06T06:55:58;1.90;99.90
5792;DHT22;2922;53.482;10.006;2024-03-06T06:58:24;1.90;99.90
5792;DHT22;2922;53.482;10.006;2024-03-06T07:00:52;1.90;99.90
5792;DHT22;2922;53.482;10.006;2024-03-06T07:03:18;2.00;99.90
5792;DHT22;2922;53.482;10.006;2024-03-06T07:05:43;2.00;99.90
5792;DHT22;2922;53.482;10.006;2024-03-06T07:08:09;2.10;99.90
5792;DHT22;2922;53.482;10.006;2024-03-06T07:10:34;2.20;99.90
5792;DHT22;2922;53.482;10.006;2024-03-06T07:13:01;2.30;99.90
5792;DHT22;2922;53.482;10.006;2024-03-06T07:15:28;2.40;99.90
5792;DHT22;2922;53.482;10.006;2024-03-06T07:17:54;2.50;99.90
5792;DHT22;2922;53.482;10.006;2024-03-06T07:20:19;2.60;99.90
5792;DHT22;2922;53.482;10.006;2024-03-06T07:22:45;2.70;99.90
5792;DHT22;2922;53.482;10.006;2024-03-06T07:25:10;2.80;99.90
5792;DHT22;2922;53.482;10.006;2024-03-06T07:27:36;3.00;99.90
5792;DHT22;2922;53.482;10.006;2024-03-06T07:30:02;3.10;99.90
5792;DHT22;2922;53.482;10.006;2024-03-06T07:32:27;3.20;99.90
5792;DHT22;2922;53.482;10.006;2024-03-06T07:34:53;3.30;99.90
5792;DHT22;2922;53.482;10.006;2024-03-06T07:37:18;3.40;99.90
5792;DHT22;2922;53.482;10.006;2024-03-06T07:39:44;3.50;99.90
5792;DHT22;2922;53.482;10.006;2024-03-06T07:42:11;3.60;99.90
5792;DHT22;2922;53.482;10.006;2024-03-06T07:44:36;3.70;99.90
5792;DHT22;2922;53.482;10.006;2024-03-06T07:47:02;3.80;99.90
5792;DHT22;2922;53.482;10.006;2024-03-06T07:49:29;3.90;99.90
5792;DHT22;2922;53.482;10.006;2024-03-06T07:51:54;4.00;99.90
5792;DHT22;2922;53.482;10.006;2024-03-06T07:54:20;4.20;99.90
5792;DHT22;2922;53.482;10.006;2024-03-06T07:56:45;4.30;99.90
5792;DHT22;2922;53.482;10.006;2024-03-06T07:59:11;4.40;99.90
5792;DHT22;2922;53.482;10.006;2024-03-06T08:01:38;4.50;99.90
5792;DHT22;2922;53.482;10.006;2024-03-06T08:04:04;4.70;99.90
5792;DHT22;2922;53.482;10.006;2024-03-06T08:06:29;4.80;99.90
5792;DHT22;2922;53.482;10.006;2024-03-06T08:08:59;4.90;99.90
5792;DHT22;2922;53.482;10.006;2024-03-06T08:11:24;5.00;99.90
5792;DHT22;2922;53.482;10.006;2024-03-06T08:14:00;5.10;99.90
5792;DHT22;2922;53.482;10.006;2024-03-06T08:16:26;5.30;99.90
5792;DHT22;2922;53.482;10.006;2024-03-06T08:18:52;5.50;99.90
5792;DHT22;2922;53.482;10.006;2024-03-06T08:21:17;5.60;99.90
5792;DHT22;2922;53.482;10.006;2024-03-06T08:23:45;5.70;99.90
5792;DHT22;2922;53.482;10.006;2024-03-06T08:26:12;5.80;99.90
5792;DHT22;2922;53.482;10.006;2024-03-06T08:28:38;6.00;99.90
5792;DHT22;2922;53.482;10.006;2024-03-06T08:31:03;6.10;99.90
5792;DHT22;2922;53.482;10.006;2024-03-06T08:33:29;6.10;99.90
5792;DHT22;2922;53.482;10.006;2024-03-06T08:35:55;6.20;99.90
5792;DHT22;2922;53.482;10.006;2024-03-06T08:38:20;6.30;99.90
5792;DHT22;2922;53.482;10.006;2024-03-06T08:40:46;6.40;99.90
5792;DHT22;2922;53.482;10.006;2024-03-06T08:43:12;6.60;99.90
5792;DHT22;2922;53.482;10.006;2024-03-06T08:45:41;6.60;99.90
5792;DHT22;2922;53.482;10.006;2024-03-06T08:48:07;6.70;99.90
5792;DHT22;2922;53.482;10.006;2024-03-06T08:50:32;6.80;99.90
5792;DHT22;2922;53.482;10.006;2024-03-06T08:52:58;6.80;99.90
5792;DHT22;2922;53.482;10.006;2024-03-06T08:55:24;6.90;99.90
5792;DHT22;2922;53.482;10.006;2024-03-06T08:57:49;7.00;99.90
5792;DHT22;2922;53.482;10.006;2024-03-06T09:00:16;7.00;99.90
5792;DHT22;2922;53.482;10.006;2024-03-06T09:02:43;7.20;99.90
5792;DHT22;2922;53.482;10.006;2024-03-06T09:05:09;7.30;99.90
5792;DHT22;2922;53.482;10.006;2024-03-06T09:07:36;7.50;99.90
5792;DHT22;2922;53.482;10.006;2024-03-06T09:10:10;7.50;99.90
5792;DHT22;2922;53.482;10.006;2024-03-06T09:12:36;7.50;99.90
5792;DHT22;2922;53.482;10.006;2024-03-06T09:15:03;7.50;99.90
5792;DHT22;2922;53.482;10.006;2024-03-06T09:17:28;7.70;99.90
5792;DHT22;2922;53.482;10.006;2024-03-06T09:19:54;7.90;99.90
5792;DHT22;2922;53.482;10.006;2024-03-06T09:22:20;8.00;99.90
5792;DHT22;2922;53.482;10.006;2024-03-06T09:24:46;8.00;99.90
5792;DHT22;2922;53.482;10.006;2024-03-06T09:27:12;8.00;99.90
5792;DHT22;2922;53.482;10.006;2024-03-06T09:29:39;8.10;99.90
5792;DHT22;2922;53.482;10.006;2024-03-06T09:32:05;8.20;99.90
5792;DHT22;2922;53.482;10.006;2024-03-06T09:34:30;8.40;99.90
5792;DHT22;2922;53.482;10.006;2024-03-06T09:36:56;8.60;99.90
5792;DHT22;2922;53.482;10.006;2024-03-06T09:39:22;8.80;99.90
5792;DHT22;2922;53.482;10.006;2024-03-06T09:41:50;9.00;99.90
5792;DHT22;2922;53.482;10.006;2024-03-06T09:44:17;9.10;99.90
5792;DHT22;2922;53.482;10.006;2024-03-06T09:46:44;9.20;99.90
5792;DHT22;2922;53.482;10.006;2024-03-06T09:49:13;9.20;99.90
5792;DHT22;2922;53.482;10.006;2024-03-06T09:51:45;9.10;99.90
5792;DHT22;2922;53.482;10.006;2024-03-06T09:54:13;8.90;99.90
5792;DHT22;2922;53.482;10.006;2024-03-06T09:56:41;8.90;99.90
5792;DHT22;2922;53.482;10.006;2024-03-06T09:59:08;8.90;99.90
5792;DHT22;2922;53.482;10.006;2024-03-06T10:01:38;8.80;99.90
5792;DHT22;2922;53.482;10.006;2024-03-06T10:04:25;8.80;99.90
5792;DHT22;2922;53.482;10.006;2024-03-06T10:06:54;9.00;99.90
5792;DHT22;2922;53.482;10.006;2024-03-06T10:09:24;9.30;99.90
5792;DHT22;2922;53.482;10.006;2024-03-06T10:11:50;9.50;99.90
5792;DHT22;2922;53.482;10.006;2024-03-06T10:14:18;9.70;99.90
5792;DHT22;2922;53.482;10.006;2024-03-06T10:16:53;9.90;99.90
5792;DHT22;2922;53.482;10.006;2024-03-06T10:19:19;10.20;99.90
5792;DHT22;2922;53.482;10.006;2024-03-06T10:21:49;10.30;99.90
5792;DHT22;2922;53.482;10.006;2024-03-06T10:24:42;10.40;99.90
5792;DHT22;2922;53.482;10.006;2024-03-06T10:27:17;10.40;99.90
5792;DHT22;2922;53.482;10.006;2024-03-06T10:29:42;10.60;99.90
5792;DHT22;2922;53.482;10.006;2024-03-06T10:32:08;10.70;99.90
5792;DHT22;2922;53.482;10.006;2024-03-06T10:34:36;10.80;99.90
5792;DHT22;2922;53.482;10.006;2024-03-06T10:37:03;10.80;99.90
5792;DHT22;2922;53.482;10.006;2024-03-06T10:39:35;10.70;99.90
5792;DHT22;2922;53.482;10.006;2024-03-06T10:42:07;10.60;99.90
5792;DHT22;2922;53.482;10.006;2024-03-06T10:44:34;10.80;99.90
5792;DHT22;2922;53.482;10.006;2024-03-06T10:47:01;10.80;99.90
5792;DHT22;2922;53.482;10.006;2024-03-06T10:49:28;10.90;99.90
5792;DHT22;2922;53.482;10.006;2024-03-06T10:52:13;11.10;99.90
5792;DHT22;2922;53.482;10.006;2024-03-06T10:54:42;11.20;99.90
5792;DHT22;2922;53.482;10.006;2024-03-06T10:57:10;11.30;99.90
5792;DHT22;2922;53.482;10.006;2024-03-06T10:59:36;11.30;99.90
5792;DHT22;2922;53.482;10.006;2024-03-06T11:02:02;11.30;99.90
5792;DHT22;2922;53.482;10.006;2024-03-06T11:04:30;11.20;99.90
5792;DHT22;2922;53.482;10.006;2024-03-06T11:07:02;11.20;99.90
5792;DHT22;2922;53.482;10.006;2024-03-06T11:09:38;11.00;99.90
5792;DHT22;2922;53.482;10.006;2024-03-06T11:12:04;10.90;99.90
5792;DHT22;2922;53.482;10.006;2024-03-06T11:14:37;10.90;99.90
5792;DHT22;2922;53.482;10.006;2024-03-06T11:17:10;10.90;99.90
5792;DHT22;2922;53.482;10.006;2024-03-06T11:28:22;11.30;99.90
5792;DHT22;2922;53.482;10.006;2024-03-06T11:33:37;11.40;99.90
5792;DHT22;2922;53.482;10.006;2024-03-06T11:36:22;11.70;99.90
5792;DHT22;2922;53.482;10.006;2024-03-06T11:38:58;11.70;99.90
5792;DHT22;2922;53.482;10.006;2024-03-06T11:41:46;11.90;99.90
5792;DHT22;2922;53.482;10.006;2024-03-06T11:44:19;12.10;99.90
5792;DHT22;2922;53.482;10.006;2024-03-06T11:46:57;12.20;99.90
5792;DHT22;2922;53.482;10.006;2024-03-06T11:49:25;12.40;99.90
5792;DHT22;2922;53.482;10.006;2024-03-06T11:51:55;12.50;99.90
5792;DHT22;2922;53.482;10.006;2024-03-06T11:54:22;12.50;99.90
5792;DHT22;2922;53.482;10.006;2024-03-06T11:56:52;12.60;99.90
5792;DHT22;2922;53.482;10.006;2024-03-06T11:59:25;12.80;99.90
5792;DHT22;2922;53.482;10.006;2024-03-06T12:01:59;12.60;99.90
5792;DHT22;2922;53.482;10.006;2024-03-06T12:04:27;12.70;99.90
5792;DHT22;2922;53.482;10.006;2024-03-06T12:06:56;12.80;99.90
5792;DHT22;2922;53.482;10.006;2024-03-06T12:09:21;12.90;99.90
5792;DHT22;2922;53.482;10.006;2024-03-06T12:11:47;13.20;99.90
5792;DHT22;2922;53.482;10.006;2024-03-06T12:14:17;13.30;99.90
5792;DHT22;2922;53.482;10.006;2024-03-06T12:16:44;13.30;99.90
5792;DHT22;2922;53.482;10.006;2024-03-06T12:19:19;13.30;99.90
5792;DHT22;2922;53.482;10.006;2024-03-06T12:21:47;13.40;99.90
5792;DHT22;2922;53.482;10.006;2024-03-06T12:24:16;13.30;99.90
5792;DHT22;2922;53.482;10.006;2024-03-06T12:26:41;13.00;99.90
5792;DHT22;2922;53.482;10.006;2024-03-06T12:29:09;13.20;99.90
5792;DHT22;2922;53.482;10.006;2024-03-06T12:31:36;13.20;99.90
5792;DHT22;2922;53.482;10.006;2024-03-06T12:34:03;13.30;99.90
5792;DHT22;2922;53.482;10.006;2024-03-06T12:36:30;13.40;99.90
5792;DHT22;2922;53.482;10.006;2024-03-06T12:39:00;13.60;99.90
5792;DHT22;2922;53.482;10.006;2024-03-06T12:41:26;13.40;99.90
5792;DHT22;2922;53.482;10.006;2024-03-06T12:43:52;13.60;99.90
5792;DHT22;2922;53.482;10.006;2024-03-06T12:46:18;13.50;99.90
5792;DHT22;2922;53.482;10.006;2024-03-06T12:48:44;13.40;99.90
5792;DHT22;2922;53.482;10.006;2024-03-06T12:51:10;13.60;99.90
5792;DHT22;2922;53.482;10.006;2024-03-06T12:53:36;13.70;99.90
5792;DHT22;2922;53.482;10.006;2024-03-06T12:56:02;13.80;99.60
5792;DHT22;2922;53.482;10.006;2024-03-06T12:58:27;13.90;99.50
5792;DHT22;2922;53.482;10.006;2024-03-06T13:00:53;14.00;98.80
5792;DHT22;2922;53.482;10.006;2024-03-06T13:03:20;14.00;97.30
5792;DHT22;2922;53.482;10.006;2024-03-06T13:05:46;13.80;97.70
5792;DHT22;2922;53.482;10.006;2024-03-06T13:08:12;13.60;97.90
5792;DHT22;2922;53.482;10.006;2024-03-06T13:10:41;13.30;99.40
5792;DHT22;2922;53.482;10.006;2024-03-06T13:13:07;13.10;97.80
5792;DHT22;2922;53.482;10.006;2024-03-06T13:15:33;13.30;99.60
5792;DHT22;2922;53.482;10.006;2024-03-06T13:18:05;13.50;98.10
5792;DHT22;2922;53.482;10.006;2024-03-06T13:20:34;13.90;99.90
5792;DHT22;2922;53.482;10.006;2024-03-06T13:23:00;14.10;99.90
5792;DHT22;2922;53.482;10.006;2024-03-06T13:25:26;14.10;97.30
5792;DHT22;2922;53.482;10.006;2024-03-06T13:27:52;14.30;99.40
5792;DHT22;2922;53.482;10.006;2024-03-06T13:30:18;14.20;99.50
5792;DHT22;2922;53.482;10.006;2024-03-06T13:32:44;14.20;99.30
5792;DHT22;2922;53.482;10.006;2024-03-06T13:35:11;14.10;99.20
5792;DHT22;2922;53.482;10.006;2024-03-06T13:37:42;13.90;97.70
5792;DHT22;2922;53.482;10.006;2024-03-06T13:40:08;13.80;97.90
5792;DHT22;2922;53.482;10.006;2024-03-06T13:42:36;13.70;96.30
5792;DHT22;2922;53.482;10.006;2024-03-06T13:45:03;13.60;96.20
5792;DHT22;2922;53.482;10.006;2024-03-06T13:47:29;13.50;97.60
5792;DHT22;2922;53.482;10.006;2024-03-06T13:49:55;13.50;97.10
5792;DHT22;2922;53.482;10.006;2024-03-06T13:52:21;13.40;97.40
5792;DHT22;2922;53.482;10.006;2024-03-06T13:54:49;13.40;97.10
5792;DHT22;2922;53.482;10.006;2024-03-06T13:57:15;13.10;96.40
5792;DHT22;2922;53.482;10.006;2024-03-06T13:59:41;13.00;97.10
5792;DHT22;2922;53.482;10.006;2024-03-06T14:02:07;12.90;97.80
5792;DHT22;2922;53.482;10.006;2024-03-06T14:04:32;12.80;96.90
5792;DHT22;2922;53.482;10.006;2024-03-06T14:06:59;12.60;95.20
5792;DHT22;2922;53.482;10.006;2024-03-06T14:09:26;12.60;97.90
5792;DHT22;2922;53.482;10.006;2024-03-06T14:11:52;12.30;95.50
5792;DHT22;2922;53.482;10.006;2024-03-06T14:14:19;12.20;96.40
5792;DHT22;2922;53.482;10.006;2024-03-06T14:16:45;12.20;98.20
5792;DHT22;2922;53.482;10.006;2024-03-06T14:19:10;12.30;97.80
5792;DHT22;2922;53.482;10.006;2024-03-06T14:21:37;12.40;96.60
5792;DHT22;2922;53.482;10.006;2024-03-06T14:24:03;12.40;96.90
5792;DHT22;2922;53.482;10.006;2024-03-06T14:26:30;12.50;97.80
5792;DHT22;2922;53.482;10.006;2024-03-06T14:28:55;12.60;97.10
5792;DHT22;2922;53.482;10.006;2024-03-06T14:31:22;12.60;96.50
5792;DHT22;2922;53.482;10.006;2024-03-06T14:33:48;12.70;98.00
5792;DHT22;2922;53.482;10.006;2024-03-06T14:36:14;12.80;97.70
5792;DHT22;2922;53.482;10.006;2024-03-06T14:38:39;12.80;99.20
5792;DHT22;2922;53.482;10.006;2024-03-06T14:41:05;12.70;95.40
5792;DHT22;2922;53.482;10.006;2024-03-06T14:43:35;12.70;96.30
5792;DHT22;2922;53.482;10.006;2024-03-06T14:46:04;12.70;95.40
5792;DHT22;2922;53.482;10.006;2024-03-06T14:48:29;12.70;98.10
5792;DHT22;2922;53.482;10.006;2024-03-06T14:50:55;12.60;94.90
5792;DHT22;2922;53.482;10.006;2024-03-06T14:53:20;12.40;95.00
5792;DHT22;2922;53.482;10.006;2024-03-06T14:55:46;12.30;94.40
5792;DHT22;2922;53.482;10.006;2024-03-06T14:58:12;12.20;94.30
5792;DHT22;2922;53.482;10.006;2024-03-06T15:00:37;12.30;94.70
5792;DHT22;2922;53.482;10.006;2024-03-06T15:03:03;12.10;95.60
5792;DHT22;2922;53.482;10.006;2024-03-06T15:05:29;12.10;95.20
5792;DHT22;2922;53.482;10.006;2024-03-06T15:07:57;12.20;96.70
5792;DHT22;2922;53.482;10.006;2024-03-06T15:10:23;12.10;95.10
5792;DHT22;2922;53.482;10.006;2024-03-06T15:12:49;11.90;93.40
5792;DHT22;2922;53.482;10.006;2024-03-06T15:15:15;11.70;94.90
5792;DHT22;2922;53.482;10.006;2024-03-06T15:17:40;11.70;95.50
5792;DHT22;2922;53.482;10.006;2024-03-06T15:20:07;11.60;94.90
5792;DHT22;2922;53.482;10.006;2024-03-06T15:22:36;11.40;95.00
5792;DHT22;2922;53.482;10.006;2024-03-06T15:25:07;11.40;97.10
5792;DHT22;2922;53.482;10.006;2024-03-06T15:27:34;11.30;96.20
5792;DHT22;2922;53.482;10.006;2024-03-06T15:30:01;11.10;95.30
5792;DHT22;2922;53.482;10.006;2024-03-06T15:32:28;10.90;97.10
5792;DHT22;2922;53.482;10.006;2024-03-06T15:34:53;10.80;97.10
5792;DHT22;2922;53.482;10.006;2024-03-06T15:37:23;10.80;96.60
5792;DHT22;2922;53.482;10.006;2024-03-06T15:39:55;10.80;97.60
5792;DHT22;2922;53.482;10.006;2024-03-06T15:42:23;10.70;97.20
5792;DHT22;2922;53.482;10.006;2024-03-06T15:44:49;10.60;97.90
5792;DHT22;2922;53.482;10.006;2024-03-06T15:47:17;10.50;98.30
5792;DHT22;2922;53.482;10.006;2024-03-06T15:49:43;10.50;98.70
5792;DHT22;2922;53.482;10.006;2024-03-06T15:52:12;10.40;97.80
5792;DHT22;2922;53.482;10.006;2024-03-06T15:54:40;10.40;98.60
5792;DHT22;2922;53.482;10.006;2024-03-06T15:57:06;10.40;98.60
5792;DHT22;2922;53.482;10.006;2024-03-06T15:59:35;10.40;98.60
5792;DHT22;2922;53.482;10.006;2024-03-06T16:02:01;10.30;98.40
5792;DHT22;2922;53.482;10.006;2024-03-06T16:04:27;10.20;98.20
5792;DHT22;2922;53.482;10.006;2024-03-06T16:06:53;10.20;99.20